Time;durP1;ratioP1;P1;durP2;ratioP2;P2;SDS_P1;SDS_P2;PMS_P1;PMS_P2;Temp;Humidity;BMP_temperature;BMP_pressure;BME280_temperature;BME280_humidity;BME280_pressure;Samples;Min_cycle;Max_cycle;Signal;HPM_P1;HPM_P2
2022/01/02 00:01:08;;;;;;;13.48;3.75;;;13.10;99.90;;;;;;5032818;28;20394;-76
2022/01/02 00:03:39;;;;;;;7.60;3.45;;;13.00;99.90;;;;;;5032196;28;20032;-74
2022/01/02 00:06:06;;;;;;;9.88;3.47;;;12.90;99.90;;;;;;5013944;28;20494;-75
2022/01/02 00:08:41;;;;;;;10.25;3.83;;;13.00;99.90;;;;;;5031778;28;20036;-76
2022/01/02 00:11:09;;;;;;;8.98;3.20;;;12.90;99.90;;;;;;5031985;28;20018;-75
2022/01/02 00:13:39;;;;;;;15.95;3.67;;;12.90;99.90;;;;;;5031901;28;20479;-76
2022/01/02 00:16:07;;;;;;;12.93;3.33;;;13.00;99.90;;;;;;5031968;28;20021;-76
2022/01/02 00:18:38;;;;;;;11.57;3.53;;;13.00;99.90;;;;;;5032226;28;20075;-74
2022/01/02 00:21:10;;;;;;;9.85;3.80;;;12.90;99.90;;;;;;5014830;28;20053;-77
2022/01/02 00:23:59;;;;;;;10.90;3.80;;;12.90;99.90;;;;;;5033332;28;20062;-76
2022/01/02 00:26:35;;;;;;;16.73;4.00;;;12.90;99.90;;;;;;5032736;28;20088;-75
2022/01/02 00:29:04;;;;;;;11.15;3.63;;;12.90;99.90;;;;;;5032682;28;20038;-76
2022/01/02 00:31:31;;;;;;;12.55;3.97;;;12.80;99.90;;;;;;5016519;28;20025;-75
2022/01/02 00:33:56;;;;;;;9.93;3.47;;;13.00;99.90;;;;;;5035931;28;20497;-74
2022/01/02 00:36:22;;;;;;;15.63;3.92;;;13.00;99.90;;;;;;5035801;28;20025;-75
2022/01/02 00:38:48;;;;;;;10.32;3.78;;;12.90;99.90;;;;;;5033885;28;20507;-76
2022/01/02 00:41:20;;;;;;;8.63;3.35;;;12.90;99.90;;;;;;5039047;28;20033;-76
2022/01/02 00:43:58;;;;;;;10.85;3.60;;;12.90;99.90;;;;;;5017052;28;20550;-75
2022/01/02 00:46:27;;;;;;;11.68;3.90;;;12.90;99.90;;;;;;5037438;28;20030;-75
2022/01/02 00:48:58;;;;;;;10.52;3.40;;;12.90;99.90;;;;;;5035867;28;20022;-76
2022/01/02 00:51:35;;;;;;;15.02;4.00;;;12.80;99.90;;;;;;5036918;28;20025;-76
2022/01/02 00:54:02;;;;;;;10.27;3.60;;;12.80;99.90;;;;;;5037196;28;20025;-76
2022/01/02 00:56:29;;;;;;;11.13;4.07;;;12.90;99.90;;;;;;5037265;28;20030;-75
2022/01/02 00:59:00;;;;;;;9.85;4.15;;;12.80;99.90;;;;;;5016991;28;20148;-76
2022/01/02 01:01:33;;;;;;;8.73;3.80;;;12.80;99.90;;;;;;5031128;28;20037;-75
2022/01/02 01:04:00;;;;;;;9.23;3.90;;;12.70;99.90;;;;;;5031185;28;20079;-76
2022/01/02 01:06:33;;;;;;;11.98;4.53;;;12.70;99.90;;;;;;5030983;28;20385;-77
2022/01/02 01:09:03;;;;;;;18.35;4.72;;;12.70;99.90;;;;;;5031127;28;20573;-77
2022/01/02 01:11:29;;;;;;;12.82;4.75;;;12.60;99.90;;;;;;5013517;28;20076;-75
2022/01/02 01:13:56;;;;;;;12.55;4.05;;;12.70;99.90;;;;;;5031260;28;20029;-75
2022/01/02 01:16:22;;;;;;;18.20;4.38;;;12.70;99.90;;;;;;5031104;28;20405;-75
2022/01/02 01:18:48;;;;;;;16.30;5.28;;;12.60;99.90;;;;;;5031016;28;20026;-76
2022/01/02 01:21:15;;;;;;;13.65;4.53;;;12.60;99.90;;;;;;5030850;28;20486;-76
2022/01/02 01:23:41;;;;;;;8.98;3.67;;;12.60;99.90;;;;;;5030795;28;20013;-75
2022/01/02 01:26:10;;;;;;;9.18;3.95;;;12.60;99.90;;;;;;5030733;28;20037;-76
2022/01/02 01:28:35;;;;;;;13.88;5.90;;;12.60;99.90;;;;;;5030843;28;20108;-75
2022/01/02 01:31:01;;;;;;;11.20;3.95;;;12.50;99.90;;;;;;5030874;28;20459;-76
2022/01/02 01:33:27;;;;;;;11.68;4.20;;;12.60;99.90;;;;;;5031729;28;20107;-76
2022/01/02 01:35:52;;;;;;;11.57;4.80;;;12.60;99.90;;;;;;5031120;28;20053;-75
2022/01/02 01:38:18;;;;;;;11.00;4.43;;;12.60;99.90;;;;;;5034948;28;20088;-76
2022/01/02 01:40:52;;;;;;;9.00;3.83;;;12.60;99.90;;;;;;5034954;28;20501;-76
2022/01/02 01:43:18;;;;;;;10.67;4.40;;;12.60;99.90;;;;;;5035029;28;20401;-74
2022/01/02 01:45:43;;;;;;;9.48;4.60;;;12.50;99.90;;;;;;5034617;28;20257;-74
2022/01/02 01:48:09;;;;;;;10.23;5.28;;;12.50;99.90;;;;;;5034665;28;20540;-76
2022/01/02 01:50:35;;;;;;;12.35;4.75;;;12.40;99.90;;;;;;5034747;28;20028;-74
2022/01/02 01:53:01;;;;;;;10.25;4.45;;;12.30;99.90;;;;;;5017379;28;20030;-74
2022/01/02 01:55:26;;;;;;;14.80;5.22;;;12.40;99.90;;;;;;5034704;28;20534;-72
2022/01/02 01:57:53;;;;;;;13.40;5.47;;;12.30;99.90;;;;;;5035341;28;20061;-74
2022/01/02 02:00:21;;;;;;;11.45;5.50;;;12.30;99.90;;;;;;5036251;28;20018;-74
2022/01/02 02:02:47;;;;;;;12.93;5.53;;;12.30;99.90;;;;;;5037875;28;20501;-74
2022/01/02 02:05:13;;;;;;;14.38;5.57;;;12.20;99.90;;;;;;5034532;28;20030;-74
2022/01/02 02:07:44;;;;;;;13.43;5.45;;;12.20;99.90;;;;;;5034236;28;20061;-74
2022/01/02 02:10:17;;;;;;;12.02;6.00;;;12.20;99.90;;;;;;5017560;28;20029;-74
2022/01/02 02:12:45;;;;;;;13.15;6.10;;;12.10;99.90;;;;;;5035012;28;20025;-74
2022/01/02 02:15:13;;;;;;;15.15;6.20;;;12.10;99.90;;;;;;5035031;28;20120;-73
2022/01/02 02:17:39;;;;;;;15.07;6.07;;;12.10;99.90;;;;;;5034962;28;20025;-73
2022/01/02 02:20:32;;;;;;;14.23;6.10;;;12.10;99.90;;;;;;5035124;28;20028;-75
2022/01/02 02:22:59;;;;;;;19.70;5.95;;;12.10;99.90;;;;;;5031958;28;20049;-74
2022/01/02 02:25:27;;;;;;;14.85;6.15;;;12.10;99.90;;;;;;5034894;28;20075;-74
2022/01/02 02:28:00;;;;;;;21.27;6.68;;;12.00;99.90;;;;;;5034971;28;20423;-74
2022/01/02 02:30:28;;;;;;;12.05;6.50;;;12.10;99.90;;;;;;5035224;28;20034;-74
2022/01/02 02:32:55;;;;;;;16.00;6.80;;;11.90;99.90;;;;;;5034952;28;20489;-74
2022/01/02 02:35:20;;;;;;;17.95;7.53;;;11.90;99.90;;;;;;5034909;28;20504;-73
2022/01/02 02:37:46;;;;;;;16.25;6.82;;;11.90;99.90;;;;;;5034783;28;20094;-73
2022/01/02 02:40:15;;;;;;;13.85;6.47;;;11.90;99.90;;;;;;5017222;28;20025;-73
2022/01/02 02:50:45;;;;;;;16.60;7.20;;;11.80;99.90;;;;;;5034858;28;20039;-74
2022/01/02 02:53:11;;;;;;;18.08;6.75;;;11.80;99.90;;;;;;5034634;28;20029;-74
2022/01/02 02:55:43;;;;;;;16.45;7.88;;;11.80;99.90;;;;;;5034622;28;20421;-74
2022/01/02 02:58:37;;;;;;;15.10;7.25;;;11.90;99.90;;;;;;5034704;28;20554;-75
2022/01/02 03:00:56;;;;;;;16.50;6.82;;;11.90;99.90;;;;;;5035456;28;20137;-73
2022/01/02 03:03:22;;;;;;;23.92;8.00;;;11.80;99.90;;;;;;5036142;28;20473;-74
2022/01/02 03:05:47;;;;;;;16.42;7.40;;;11.80;99.90;;;;;;5022862;28;20057;-74
2022/01/02 03:08:13;;;;;;;16.58;7.57;;;11.70;99.90;;;;;;5022624;28;20540;-74
2022/01/02 03:10:39;;;;;;;23.02;7.57;;;11.70;99.90;;;;;;5039407;28;20021;-74
2022/01/02 03:13:04;;;;;;;16.38;7.68;;;11.70;99.90;;;;;;5040807;28;20143;-75
2022/01/02 03:15:30;;;;;;;18.40;8.75;;;11.70;99.90;;;;;;5036430;28;20244;-76
2022/01/02 03:17:55;;;;;;;17.00;8.05;;;11.70;99.90;;;;;;5042592;28;20471;-72
2022/01/02 03:20:21;;;;;;;14.68;8.15;;;11.80;99.90;;;;;;5038220;28;20104;-73
2022/01/02 03:22:46;;;;;;;17.27;8.07;;;11.70;99.90;;;;;;5034018;28;20027;-75
2022/01/02 03:25:13;;;;;;;20.60;8.52;;;11.60;99.90;;;;;;5016126;28;20021;-74
2022/01/02 03:27:40;;;;;;;18.75;8.18;;;11.60;99.90;;;;;;5033472;28;20045;-74
2022/01/02 03:30:07;;;;;;;16.40;9.10;;;11.60;99.90;;;;;;5033731;28;20029;-73
2022/01/02 03:32:33;;;;;;;18.13;8.00;;;11.60;99.90;;;;;;5015835;28;20022;-74
2022/01/02 03:34:58;;;;;;;27.90;9.60;;;11.70;99.90;;;;;;5033853;28;20033;-74
2022/01/02 03:37:28;;;;;;;23.17;9.95;;;11.70;99.90;;;;;;5033364;28;20030;-75
2022/01/02 03:39:54;;;;;;;19.95;9.43;;;11.70;99.90;;;;;;5034649;28;20018;-76
2022/01/02 03:42:19;;;;;;;20.95;8.98;;;11.70;99.90;;;;;;5033775;28;20052;-76
2022/01/02 03:44:45;;;;;;;23.13;9.55;;;11.60;99.90;;;;;;5033899;28;20499;-76
2022/01/02 03:47:11;;;;;;;21.17;9.40;;;11.60;99.90;;;;;;5034219;28;20544;-75
2022/01/02 03:49:36;;;;;;;22.15;10.90;;;11.60;99.90;;;;;;5034545;28;20040;-79
2022/01/02 03:52:02;;;;;;;17.40;10.07;;;11.60;99.90;;;;;;5034274;28;20394;-76
2022/01/02 03:54:28;;;;;;;22.75;10.20;;;11.60;99.90;;;;;;5033880;28;20359;-75
2022/01/02 03:56:54;;;;;;;24.63;10.40;;;11.60;99.90;;;;;;5033436;28;20030;-75
2022/01/02 03:59:20;;;;;;;22.15;9.35;;;11.70;99.90;;;;;;5032699;28;20026;-75
2022/01/02 04:01:46;;;;;;;25.88;11.10;;;11.70;99.90;;;;;;5033138;28;20033;-75
2022/01/02 04:04:11;;;;;;;22.60;10.70;;;11.70;99.90;;;;;;5015637;28;20036;-75
2022/01/02 04:06:37;;;;;;;19.80;10.40;;;11.60;99.90;;;;;;5033341;28;20072;-74
2022/01/02 04:09:03;;;;;;;30.70;13.45;;;11.60;99.90;;;;;;5033166;28;20506;-74
2022/01/02 04:11:29;;;;;;;21.15;10.48;;;11.60;99.90;;;;;;5033172;28;20391;-75
2022/01/02 04:13:54;;;;;;;20.17;10.50;;;11.70;99.90;;;;;;5033101;28;20018;-75
2022/01/02 04:16:20;;;;;;;21.17;11.35;;;11.70;99.90;;;;;;5032658;28;20025;-74
2022/01/02 04:18:45;;;;;;;22.33;10.93;;;11.70;99.90;;;;;;5032704;28;20032;-75
2022/01/02 04:21:11;;;;;;;21.92;11.20;;;11.70;99.90;;;;;;5032902;28;20527;-75
2022/01/02 04:23:38;;;;;;;20.63;11.18;;;11.70;99.90;;;;;;5032888;28;20128;-73
2022/01/02 04:26:04;;;;;;;20.15;10.55;;;11.70;99.90;;;;;;5032764;28;20029;-75
2022/01/02 04:28:30;;;;;;;19.55;10.93;;;11.60;99.90;;;;;;5032728;28;20034;-74
2022/01/02 04:30:55;;;;;;;22.05;10.63;;;11.60;99.90;;;;;;5033167;28;20036;-76
2022/01/02 04:33:21;;;;;;;26.80;11.40;;;11.60;99.90;;;;;;5033448;28;20386;-75
2022/01/02 04:35:46;;;;;;;18.38;10.85;;;11.60;99.90;;;;;;5035836;28;20083;-75
2022/01/02 04:38:13;;;;;;;19.63;10.75;;;11.60;99.90;;;;;;5033780;28;20022;-75
2022/01/02 04:40:40;;;;;;;19.15;10.70;;;11.60;99.90;;;;;;5033971;28;20079;-76
2022/01/02 04:43:05;;;;;;;16.38;10.70;;;11.60;99.90;;;;;;5033938;28;20021;-74
2022/01/02 04:45:31;;;;;;;21.58;11.95;;;11.60;99.90;;;;;;5034098;28;20093;-74
2022/01/02 04:47:57;;;;;;;20.88;12.23;;;11.60;99.90;;;;;;5036899;28;20045;-74
2022/01/02 04:50:24;;;;;;;21.40;12.35;;;11.60;99.90;;;;;;5032967;28;20033;-75
2022/01/02 04:52:50;;;;;;;20.95;11.77;;;11.50;99.90;;;;;;5015099;28;20479;-75
2022/01/02 04:55:15;;;;;;;28.88;12.35;;;11.60;99.90;;;;;;5032815;28;20029;-75
2022/01/02 04:57:41;;;;;;;18.23;11.60;;;11.60;99.90;;;;;;5032694;28;20284;-75
2022/01/02 05:00:07;;;;;;;21.15;11.70;;;11.60;99.90;;;;;;5032375;28;20079;-75
2022/01/02 05:02:33;;;;;;;22.25;11.65;;;11.50;99.90;;;;;;5014755;28;20033;-74
2022/01/02 05:04:58;;;;;;;22.65;12.10;;;11.60;99.90;;;;;;5032977;28;20505;-75
2022/01/02 05:07:24;;;;;;;24.52;12.55;;;11.60;99.90;;;;;;5032490;28;20476;-75
2022/01/02 05:09:50;;;;;;;21.95;11.50;;;11.50;99.90;;;;;;5034332;28;20040;-75
2022/01/02 05:12:15;;;;;;;26.48;12.77;;;11.50;99.90;;;;;;5036026;28;20034;-75
2022/01/02 05:14:41;;;;;;;23.33;11.90;;;11.50;99.90;;;;;;5014803;28;20060;-75
2022/01/02 05:17:06;;;;;;;20.70;11.82;;;11.50;99.90;;;;;;5014643;28;20030;-75
2022/01/02 05:19:32;;;;;;;21.20;12.18;;;11.50;99.90;;;;;;5018202;28;20021;-75
2022/01/02 05:21:58;;;;;;;26.45;13.38;;;11.50;99.90;;;;;;5042851;28;20075;-74
2022/01/02 05:24:24;;;;;;;26.90;12.45;;;11.50;99.90;;;;;;5032128;28;20045;-74
2022/01/02 05:26:50;;;;;;;22.20;12.00;;;11.50;99.90;;;;;;5031567;28;20026;-73
2022/01/02 05:29:17;;;;;;;18.60;11.52;;;11.60;99.90;;;;;;5033675;28;20464;-73
2022/01/02 05:31:42;;;;;;;21.30;12.60;;;11.50;99.90;;;;;;5033558;28;20090;-74
2022/01/02 05:34:08;;;;;;;19.75;11.43;;;11.50;99.90;;;;;;5051586;28;20022;-75
2022/01/02 05:36:34;;;;;;;20.83;11.55;;;11.60;99.90;;;;;;5051269;28;20009;-74
2022/01/02 05:39:00;;;;;;;28.77;12.52;;;11.60;99.90;;;;;;5051239;28;20030;-74
2022/01/02 05:41:30;;;;;;;27.55;12.18;;;11.60;99.90;;;;;;5035353;28;20010;-74
2022/01/02 05:43:56;;;;;;;21.77;12.93;;;11.60;99.90;;;;;;5053540;28;20021;-73
2022/01/02 05:46:22;;;;;;;23.58;12.80;;;11.60;99.90;;;;;;5048963;28;20037;-74
2022/01/02 05:48:48;;;;;;;22.52;12.60;;;11.60;99.90;;;;;;5052026;28;20037;-75
2022/01/02 05:51:13;;;;;;;22.08;12.45;;;11.60;99.90;;;;;;5034626;28;20090;-75
2022/01/02 05:53:39;;;;;;;23.55;13.98;;;11.60;99.90;;;;;;5031806;28;20421;-74
2022/01/02 05:56:05;;;;;;;27.25;13.60;;;11.60;99.90;;;;;;5014053;28;20014;-74
2022/01/02 05:58:31;;;;;;;25.33;13.40;;;11.60;99.90;;;;;;5031866;28;20617;-74
2022/01/02 06:00:57;;;;;;;28.25;14.30;;;11.60;99.90;;;;;;5036893;28;20030;-74
2022/01/02 06:03:23;;;;;;;29.17;13.68;;;11.60;99.90;;;;;;5038582;28;20076;-74
2022/01/02 06:05:48;;;;;;;33.42;14.65;;;11.60;99.90;;;;;;5031632;28;20035;-75
2022/01/02 06:08:14;;;;;;;26.38;14.20;;;11.60;99.90;;;;;;5014048;28;20029;-74
2022/01/02 06:10:40;;;;;;;26.73;14.00;;;11.60;99.90;;;;;;5013796;28;20104;-75
2022/01/02 06:13:05;;;;;;;28.42;13.30;;;11.60;99.90;;;;;;5031660;28;20029;-75
2022/01/02 06:15:31;;;;;;;25.23;13.98;;;11.60;99.90;;;;;;5030976;28;20064;-74
2022/01/02 06:17:58;;;;;;;26.90;13.35;;;11.60;99.90;;;;;;5035033;28;20107;-74
2022/01/02 06:20:23;;;;;;;24.48;13.45;;;11.60;99.90;;;;;;5035709;28;20458;-75
2022/01/02 06:22:50;;;;;;;25.33;13.55;;;11.60;99.90;;;;;;5034353;28;20100;-74
2022/01/02 06:25:16;;;;;;;28.27;14.98;;;11.70;99.90;;;;;;5034332;28;20040;-75
2022/01/02 06:27:42;;;;;;;30.83;14.52;;;11.70;99.90;;;;;;5034226;28;20083;-74
2022/01/02 06:30:08;;;;;;;25.05;14.00;;;11.70;99.90;;;;;;5034484;28;20386;-74
2022/01/02 06:32:34;;;;;;;21.75;13.10;;;11.60;99.90;;;;;;5034078;28;20071;-75
2022/01/02 06:35:00;;;;;;;25.42;14.10;;;11.60;99.90;;;;;;5034706;28;20053;-74
2022/01/02 06:37:25;;;;;;;23.92;13.60;;;11.70;99.90;;;;;;5033942;28;20032;-73
2022/01/02 06:39:51;;;;;;;24.63;14.75;;;11.70;99.90;;;;;;5034444;28;20021;-74
2022/01/02 06:42:17;;;;;;;27.25;14.73;;;11.70;99.90;;;;;;5034112;28;20022;-73
2022/01/02 06:44:42;;;;;;;27.90;15.57;;;11.70;99.90;;;;;;5033874;28;20025;-72
2022/01/02 06:47:08;;;;;;;28.27;16.30;;;11.70;99.90;;;;;;5034312;28;20486;-74
2022/01/02 06:49:34;;;;;;;33.03;15.65;;;11.70;99.90;;;;;;5016679;28;20033;-74
2022/01/02 06:52:00;;;;;;;28.38;15.00;;;11.70;99.90;;;;;;5034658;28;20083;-74
2022/01/02 06:54:25;;;;;;;29.95;15.73;;;11.70;99.90;;;;;;5034480;28;20025;-74
2022/01/02 06:56:51;;;;;;;24.15;13.50;;;11.70;99.90;;;;;;5034357;28;20025;-74
2022/01/02 06:59:17;;;;;;;25.75;13.70;;;11.70;99.90;;;;;;5034374;28;20040;-74
2022/01/02 07:01:43;;;;;;;27.67;13.32;;;11.70;99.90;;;;;;5034169;28;20037;-72
2022/01/02 07:04:09;;;;;;;20.25;11.88;;;11.70;99.90;;;;;;5034588;28;20025;-74
2022/01/02 07:06:37;;;;;;;22.45;12.20;;;11.70;99.90;;;;;;5035387;28;20530;-74
2022/01/02 07:09:03;;;;;;;19.92;12.68;;;11.70;99.90;;;;;;5038099;28;20029;-73
2022/01/02 07:11:29;;;;;;;26.30;11.27;;;11.70;99.90;;;;;;5034729;28;20104;-74
2022/01/02 07:13:54;;;;;;;23.42;11.45;;;11.70;99.90;;;;;;5034315;28;20394;-74
2022/01/02 07:16:20;;;;;;;25.60;12.43;;;11.80;99.90;;;;;;5033800;28;20021;-72
2022/01/02 07:18:45;;;;;;;24.13;11.30;;;11.80;99.90;;;;;;5034743;28;20021;-74
2022/01/02 07:21:11;;;;;;;27.30;12.73;;;11.80;99.90;;;;;;5034554;28;20029;-75
2022/01/02 07:23:36;;;;;;;23.58;11.90;;;11.80;99.90;;;;;;5034560;28;20026;-77
2022/01/02 07:26:02;;;;;;;22.63;11.65;;;11.80;99.90;;;;;;5035362;28;20017;-78
2022/01/02 07:28:29;;;;;;;25.00;11.75;;;11.80;99.90;;;;;;5034538;28;20040;-77
2022/01/02 07:30:55;;;;;;;26.27;11.73;;;11.80;99.90;;;;;;5035277;28;20025;-77
2022/01/02 07:33:22;;;;;;;21.27;12.70;;;11.80;99.90;;;;;;5037916;28;20053;-75
2022/01/02 07:35:47;;;;;;;25.17;11.68;;;11.90;99.90;;;;;;5025851;28;20032;-76
2022/01/02 07:38:13;;;;;;;24.05;12.07;;;11.90;99.90;;;;;;5044360;28;20037;-76
2022/01/02 07:40:38;;;;;;;25.88;12.05;;;11.90;99.90;;;;;;5045254;28;20029;-75
2022/01/02 07:43:04;;;;;;;30.98;13.13;;;11.90;99.90;;;;;;5021372;28;20029;-75
2022/01/02 07:45:29;;;;;;;30.08;13.13;;;11.90;99.90;;;;;;5034462;28;20025;-74
2022/01/02 07:47:55;;;;;;;25.65;12.82;;;11.90;99.90;;;;;;5033543;28;20487;-75
2022/01/02 07:50:22;;;;;;;26.73;12.48;;;11.90;99.90;;;;;;5033839;28;20111;-75
2022/01/02 07:52:48;;;;;;;31.73;12.35;;;12.00;99.90;;;;;;5015520;28;20030;-74
2022/01/02 07:55:14;;;;;;;34.50;13.00;;;12.00;99.90;;;;;;5016009;28;20517;-75
2022/01/02 07:57:39;;;;;;;26.33;11.93;;;12.00;99.90;;;;;;5032854;28;20100;-76
2022/01/02 08:00:06;;;;;;;36.75;13.70;;;12.00;99.90;;;;;;5033158;28;20067;-75
2022/01/02 08:02:31;;;;;;;30.05;12.27;;;12.00;99.90;;;;;;5033170;28;20406;-74
2022/01/02 08:04:57;;;;;;;32.28;12.65;;;12.10;99.90;;;;;;5033220;28;20026;-75
2022/01/02 08:07:22;;;;;;;23.60;11.73;;;12.10;99.90;;;;;;5032990;28;20399;-76
2022/01/02 08:09:48;;;;;;;30.25;11.48;;;12.10;99.90;;;;;;5033161;28;20026;-77
2022/01/02 08:12:13;;;;;;;29.17;11.68;;;12.10;99.90;;;;;;5034770;28;20095;-75
2022/01/02 08:14:39;;;;;;;34.67;11.77;;;12.10;99.90;;;;;;5034599;28;20017;-75
2022/01/02 08:17:04;;;;;;;27.25;11.45;;;12.10;99.90;;;;;;5036120;28;20033;-74
2022/01/02 08:19:30;;;;;;;28.90;10.95;;;12.10;99.90;;;;;;5039033;28;20025;-74
2022/01/02 08:21:55;;;;;;;29.33;11.43;;;12.10;99.90;;;;;;5037584;28;20037;-75
2022/01/02 08:24:21;;;;;;;23.15;10.82;;;12.20;99.90;;;;;;5033274;28;20025;-74
2022/01/02 08:26:47;;;;;;;34.47;12.02;;;12.20;99.90;;;;;;5032289;28;20033;-75
2022/01/02 08:29:12;;;;;;;30.20;11.15;;;12.20;99.90;;;;;;5015488;28;20045;-74
2022/01/02 08:31:40;;;;;;;31.58;11.02;;;12.20;99.90;;;;;;5030767;28;20531;-74
2022/01/02 08:34:05;;;;;;;32.55;10.35;;;12.20;99.90;;;;;;5032957;28;20100;-75
2022/01/02 08:36:31;;;;;;;23.80;10.25;;;12.20;99.90;;;;;;5032777;28;20101;-74
2022/01/02 08:38:57;;;;;;;23.67;9.93;;;12.20;99.90;;;;;;5032881;28;20032;-74
2022/01/02 08:41:22;;;;;;;21.63;10.15;;;12.20;99.90;;;;;;5032847;28;20022;-74
2022/01/02 08:43:48;;;;;;;24.08;9.35;;;12.20;99.90;;;;;;5035574;28;20036;-74
2022/01/02 08:46:14;;;;;;;25.80;8.65;;;12.20;99.90;;;;;;5015795;28;20029;-74
2022/01/02 08:48:39;;;;;;;25.13;8.23;;;12.20;99.90;;;;;;5033120;28;20029;-75
2022/01/02 08:51:05;;;;;;;18.38;7.30;;;12.20;99.90;;;;;;5034139;28;20028;-74
2022/01/02 08:53:32;;;;;;;20.40;7.97;;;12.30;99.90;;;;;;5033563;28;20025;-73
2022/01/02 08:55:58;;;;;;;22.92;8.35;;;12.30;99.90;;;;;;5033902;28;20033;-74
2022/01/02 08:58:23;;;;;;;22.48;8.13;;;12.30;99.90;;;;;;5033155;28;20030;-76
2022/01/02 09:00:49;;;;;;;19.67;7.22;;;12.30;99.90;;;;;;5015375;28;20026;-75
2022/01/02 09:03:15;;;;;;;24.45;7.50;;;12.40;99.90;;;;;;5084848;23;20043;-79
2022/01/02 09:05:41;;;;;;;19.98;7.20;;;12.40;99.90;;;;;;5077989;28;20366;-78
2022/01/02 09:08:07;;;;;;;23.15;7.05;;;12.40;99.90;;;;;;5078644;28;20085;-76
2022/01/02 09:10:33;;;;;;;17.30;6.60;;;12.50;99.90;;;;;;5080280;28;20020;-75
2022/01/02 09:12:59;;;;;;;18.17;6.65;;;12.50;99.90;;;;;;5085056;28;20040;-76
2022/01/02 09:15:25;;;;;;;17.73;6.65;;;12.50;99.90;;;;;;5077356;28;20017;-76
2022/01/02 09:17:50;;;;;;;20.80;6.45;;;12.50;99.90;;;;;;5077464;28;20017;-76
2022/01/02 09:20:23;;;;;;;26.08;7.47;;;12.50;99.90;;;;;;5077468;28;20023;-76
2022/01/02 09:22:48;;;;;;;25.98;7.50;;;12.50;99.90;;;;;;5060155;28;20033;-77
2022/01/02 09:25:14;;;;;;;18.33;5.72;;;12.60;99.90;;;;;;5066098;28;20013;-75
2022/01/02 09:27:41;;;;;;;21.60;6.97;;;12.70;99.90;;;;;;5077724;28;20028;-75
2022/01/02 09:30:08;;;;;;;22.85;5.93;;;12.70;99.90;;;;;;5072648;28;20029;-77
2022/01/02 09:32:34;;;;;;;28.23;6.55;;;12.70;99.90;;;;;;5045020;28;20021;-75
2022/01/02 09:35:05;;;;;;;20.98;6.95;;;12.70;99.90;;;;;;5059512;28;20042;-76
2022/01/02 09:37:31;;;;;;;21.27;5.85;;;12.70;99.90;;;;;;5046626;28;20155;-77
2022/01/02 09:39:56;;;;;;;20.65;6.15;;;12.70;99.90;;;;;;5057760;28;20436;-77
2022/01/02 09:42:22;;;;;;;13.48;5.47;;;12.80;99.90;;;;;;5057383;28;20025;-75
2022/01/02 09:44:47;;;;;;;24.23;6.03;;;12.80;99.90;;;;;;5038417;28;20060;-78
2022/01/02 09:47:18;;;;;;;21.83;5.75;;;12.80;99.90;;;;;;5057796;28;20564;-79
2022/01/02 09:49:46;;;;;;;25.52;5.93;;;12.70;99.90;;;;;;5038931;28;20070;-76
2022/01/02 09:52:11;;;;;;;25.60;5.90;;;12.80;99.90;;;;;;5038139;28;20037;-78
2022/01/02 09:54:37;;;;;;;16.48;5.97;;;12.80;99.90;;;;;;5057888;28;20025;-76
2022/01/02 09:57:03;;;;;;;17.13;5.72;;;12.80;99.90;;;;;;5056257;28;20021;-76
2022/01/02 09:59:28;;;;;;;27.55;6.75;;;12.80;99.90;;;;;;5065156;28;20155;-77
2022/01/02 10:01:54;;;;;;;23.50;6.00;;;12.80;99.90;;;;;;5064257;28;20051;-77
2022/01/02 10:04:37;;;;;;;17.42;5.53;;;12.90;99.90;;;;;;5067605;28;20044;-77
2022/01/02 10:07:05;;;;;;;21.85;5.85;;;12.90;99.90;;;;;;5066463;28;20021;-77
2022/01/02 10:09:36;;;;;;;16.40;5.00;;;12.90;99.90;;;;;;5072744;28;20032;-77
2022/01/02 10:12:27;;;;;;;17.35;5.78;;;12.90;99.90;;;;;;5073816;28;20025;-76
2022/01/02 10:15:18;;;;;;;17.40;5.25;;;12.90;99.90;;;;;;5043910;28;20101;-78
2022/01/02 10:17:57;;;;;;;24.23;6.38;;;13.00;99.90;;;;;;5062081;28;20477;-78
2022/01/02 10:20:41;;;;;;;23.70;5.88;;;12.90;99.90;;;;;;5060712;28;20103;-77
2022/01/02 10:23:10;;;;;;;16.00;5.20;;;12.90;99.90;;;;;;5043155;28;20035;-77
2022/01/02 10:25:55;;;;;;;19.20;5.82;;;13.00;99.90;;;;;;5065861;28;20028;-79
2022/01/02 10:28:30;;;;;;;25.20;6.38;;;13.00;99.90;;;;;;5060470;28;20028;-77
2022/01/02 10:31:09;;;;;;;28.52;6.30;;;13.00;99.90;;;;;;5042794;28;20033;-80
2022/01/02 10:33:56;;;;;;;15.77;5.32;;;12.90;99.90;;;;;;5060609;28;20021;-81
2022/01/02 10:36:32;;;;;;;19.42;5.45;;;12.90;99.90;;;;;;5061688;28;20059;-78
2022/01/02 10:39:18;;;;;;;18.23;5.47;;;12.90;99.90;;;;;;5059822;28;20051;-78
2022/01/02 10:41:48;;;;;;;18.48;5.55;;;12.90;99.90;;;;;;5041226;28;20088;-76
2022/01/02 10:44:29;;;;;;;16.27;5.20;;;12.80;99.90;;;;;;5059130;28;20051;-76
2022/01/02 10:47:09;;;;;;;15.23;5.03;;;12.80;99.90;;;;;;5058419;28;20021;-77
2022/01/02 10:50:03;;;;;;;22.00;5.35;;;12.80;99.90;;;;;;5059104;28;20482;-76
2022/01/02 10:52:36;;;;;;;16.03;4.80;;;12.90;99.90;;;;;;5062124;28;20116;-77
2022/01/02 10:55:19;;;;;;;18.33;4.85;;;12.90;99.90;;;;;;5045631;28;20569;-77
2022/01/02 10:57:47;;;;;;;12.98;4.78;;;12.90;99.90;;;;;;5062098;28;20362;-77
2022/01/02 11:00:15;;;;;;;25.35;5.72;;;12.80;99.90;;;;;;5044698;28;20027;-78
2022/01/02 11:02:41;;;;;;;19.20;5.60;;;12.80;99.90;;;;;;5063864;28;20063;-78
2022/01/02 11:05:10;;;;;;;13.18;4.60;;;12.90;99.90;;;;;;5042517;28;20033;-77
2022/01/02 11:07:43;;;;;;;14.45;5.60;;;12.80;99.90;;;;;;5060180;28;20024;-77
2022/01/02 11:10:10;;;;;;;16.17;5.07;;;12.90;99.90;;;;;;5060569;28;20381;-77
2022/01/02 11:12:41;;;;;;;16.13;5.15;;;12.80;99.90;;;;;;5045998;28;20473;-78
2022/01/02 11:15:12;;;;;;;20.75;5.15;;;12.90;99.90;;;;;;5059869;28;20075;-78
2022/01/02 11:17:38;;;;;;;15.98;4.97;;;12.80;99.90;;;;;;5060191;28;20021;-77
2022/01/02 11:20:10;;;;;;;17.55;5.60;;;12.90;99.90;;;;;;5061292;28;20056;-77
2022/01/02 11:22:52;;;;;;;27.33;6.18;;;12.90;99.90;;;;;;5063463;28;20381;-79
2022/01/02 11:25:29;;;;;;;16.70;5.63;;;12.90;99.90;;;;;;5060288;28;20020;-78
2022/01/02 11:28:03;;;;;;;16.10;6.18;;;12.90;99.90;;;;;;5041365;28;20035;-78
2022/01/02 11:30:35;;;;;;;19.10;5.57;;;12.90;99.90;;;;;;5044553;28;20162;-78
2022/01/02 11:33:15;;;;;;;20.45;5.55;;;12.80;99.90;;;;;;5058891;28;20025;-78
2022/01/02 11:35:47;;;;;;;16.35;5.65;;;12.80;99.90;;;;;;5057495;28;20025;-78
2022/01/02 11:38:15;;;;;;;17.88;5.57;;;12.80;99.90;;;;;;5041033;28;20036;-79
2022/01/02 11:40:53;;;;;;;16.58;5.13;;;12.80;99.90;;;;;;5060270;28;20025;-78
2022/01/02 11:43:46;;;;;;;21.00;6.07;;;12.80;99.90;;;;;;5059106;28;20055;-78
2022/01/02 11:46:36;;;;;;;22.73;5.82;;;12.80;99.90;;;;;;5057119;28;20035;-78
2022/01/02 11:49:05;;;;;;;21.60;6.10;;;12.70;99.90;;;;;;5039284;28;20025;-78
2022/01/02 11:51:52;;;;;;;20.50;5.57;;;12.70;99.90;;;;;;5057074;28;20079;-77
2022/01/02 11:56:56;;;;;;;16.88;5.97;;;12.70;99.90;;;;;;5056880;28;20535;-77
2022/01/02 11:59:39;;;;;;;21.20;6.18;;;12.70;99.90;;;;;;5069361;28;20028;-78
2022/01/02 12:02:26;;;;;;;26.95;6.65;;;12.70;99.90;;;;;;5064720;28;20048;-77
2022/01/02 12:07:35;;;;;;;19.40;7.15;;;12.70;99.90;;;;;;5059469;28;20075;-77
2022/01/02 12:10:26;;;;;;;;;;;12.70;99.90;;;;;;5056048;28;20013;-77
2022/01/02 12:13:10;;;;;;;22.48;6.88;;;12.70;99.90;;;;;;5069539;28;19913;-78
2022/01/02 12:15:39;;;;;;;23.48;7.25;;;12.70;99.90;;;;;;5063628;28;20037;-77
2022/01/02 12:18:11;;;;;;;28.77;7.43;;;12.70;99.90;;;;;;5060224;28;20097;-77
2022/01/02 12:21:00;;;;;;;22.65;6.78;;;12.70;99.90;;;;;;5040669;28;20032;-77
2022/01/02 12:23:42;;;;;;;24.90;7.93;;;12.70;99.90;;;;;;5061615;28;20537;-78
2022/01/02 12:26:08;;;;;;;28.02;6.53;;;12.70;99.90;;;;;;5059387;28;20041;-78
2022/01/02 12:28:46;;;;;;;26.13;6.95;;;12.70;99.90;;;;;;5059810;28;20021;-77
2022/01/02 12:31:14;;;;;;;25.20;7.53;;;12.60;99.90;;;;;;5059552;28;20017;-78
2022/01/02 12:33:41;;;;;;;21.60;7.30;;;12.70;99.90;;;;;;5060963;28;20056;-78
2022/01/02 12:36:15;;;;;;;28.73;6.95;;;12.60;99.90;;;;;;5058147;28;20167;-78
2022/01/02 12:38:49;;;;;;;23.30;7.68;;;12.70;99.90;;;;;;5059092;28;20028;-77
2022/01/02 12:41:18;;;;;;;27.20;7.85;;;12.70;99.90;;;;;;5056371;28;20525;-77
2022/01/02 12:44:15;;;;;;;19.63;6.90;;;12.80;99.90;;;;;;5066254;28;20024;-78
2022/01/02 12:46:53;;;;;;;24.92;6.85;;;12.80;99.90;;;;;;5036070;28;20032;-76
2022/01/02 12:49:28;;;;;;;17.88;6.10;;;12.90;99.90;;;;;;5064095;28;20127;-78
2022/01/02 12:52:05;;;;;;;22.35;6.32;;;12.90;99.90;;;;;;5059979;28;20032;-75
2022/01/02 12:54:34;;;;;;;22.25;6.85;;;12.90;99.90;;;;;;5060346;28;20020;-77